Time;durP1;ratioP1;P1;durP2;ratioP2;P2;SDS_P1;SDS_P2;PMS_P1;PMS_P2;Temp;Humidity;BMP_temperature;BMP_pressure;BME280_temperature;BME280_humidity;BME280_pressure;Samples;Min_cycle;Max_cycle;Signal;HPM_P1;HPM_P2
2024/01/11 00:02:27;;;;;;;29.67;18.20;;;1.30;99.90;;;1.25;54.46;103106.75;5051262;28;20490;-80
2024/01/11 00:04:56;;;;;;;23.80;18.83;;;1.20;99.90;;;1.28;54.29;103113.88;5050240;28;20122;-80
2024/01/11 00:07:24;;;;;;;25.50;17.20;;;1.20;99.90;;;0.47;54.60;102969.31;5051420;28;20049;-79
2024/01/11 00:09:54;;;;;;;27.87;19.10;;;1.30;99.90;;;1.27;54.66;103117.28;5051570;28;20147;-80
2024/01/11 00:12:23;;;;;;;26.17;18.88;;;1.30;99.90;;;1.24;55.16;103122.28;5051103;28;20055;-80
2024/01/11 00:14:51;;;;;;;24.90;18.90;;;1.20;99.90;;;1.24;54.81;103112.75;5051561;28;20094;-78
2024/01/11 00:17:19;;;;;;;28.93;19.10;;;1.10;99.90;;;1.20;55.08;103115.06;5051674;28;20041;-80
2024/01/11 00:19:48;;;;;;;28.20;17.97;;;1.10;99.90;;;1.15;54.98;103113.81;5051545;28;20037;-78
2024/01/11 00:22:17;;;;;;;25.60;17.93;;;1.20;99.90;;;1.18;55.00;103124.47;5051055;28;20065;-78
2024/01/11 00:24:45;;;;;;;25.77;19.27;;;1.10;99.90;;;1.21;55.21;103116.84;5051164;28;20064;-78
2024/01/11 00:27:15;;;;;;;26.90;18.93;;;1.10;99.90;;;1.15;55.23;103113.81;5051354;28;20047;-79
2024/01/11 00:29:44;;;;;;;27.13;19.85;;;1.10;99.90;;;1.10;55.19;103117.81;5050940;28;20111;-80
2024/01/11 00:32:12;;;;;;;29.33;19.20;;;1.10;99.90;;;0.90;55.45;103078.25;5049944;28;20416;-78
2024/01/11 00:34:41;;;;;;;25.47;18.10;;;1.10;99.90;;;1.11;55.43;103101.38;5050958;28;20099;-80
2024/01/11 00:37:09;;;;;;;26.67;19.60;;;1.10;99.90;;;1.17;55.42;103118.34;5050908;28;20047;-78
2024/01/11 00:39:38;;;;;;;29.00;18.10;;;1.10;99.90;;;1.12;55.28;103108.41;5050948;28;20090;-80
2024/01/11 00:42:06;;;;;;;25.90;17.87;;;1.10;99.90;;;0.97;55.20;103115.16;5051058;28;20068;-79
2024/01/11 00:44:36;;;;;;;29.33;19.00;;;1.10;99.90;;;1.18;55.29;103116.66;5049665;28;20065;-80
2024/01/11 00:47:05;;;;;;;27.02;19.13;;;1.10;99.90;;;1.22;55.28;103129.09;5049726;28;20041;-78
2024/01/11 00:49:33;;;;;;;27.87;17.90;;;1.20;99.90;;;1.23;55.32;103123.06;5051083;28;20033;-79
2024/01/11 00:52:02;;;;;;;28.00;17.57;;;1.20;99.90;;;1.24;55.64;103122.28;5049270;28;20243;-79
2024/01/11 00:54:31;;;;;;;25.43;18.57;;;1.20;99.90;;;1.25;55.23;103118.88;5049344;28;20060;-80
2024/01/11 00:56:59;;;;;;;26.10;18.60;;;1.20;99.90;;;1.25;55.43;103124.09;5050878;28;20132;-80
2024/01/11 00:59:27;;;;;;;28.80;19.40;;;1.20;99.90;;;1.21;55.55;103111.63;5050768;28;20048;-79
2024/01/11 01:01:57;;;;;;;29.73;19.37;;;1.20;99.90;;;1.28;55.62;103122.59;5050687;28;20099;-80
2024/01/11 01:04:26;;;;;;;27.35;18.67;;;1.20;99.90;;;1.30;55.48;103122.69;5049152;28;20044;-79
2024/01/11 01:06:54;;;;;;;27.63;19.47;;;1.30;99.90;;;0.56;55.70;103001.16;5050160;28;20041;-79
2024/01/11 01:09:23;;;;;;;28.73;18.40;;;1.20;99.90;;;1.16;55.81;103116.53;5050339;28;20118;-79
2024/01/11 01:11:51;;;;;;;30.87;20.47;;;1.20;99.90;;;1.17;56.02;103120.94;5050063;28;20037;-80
2024/01/11 01:14:20;;;;;;;29.77;19.83;;;1.10;99.90;;;1.17;56.27;103120.03;5050129;28;20049;-79
2024/01/11 01:16:48;;;;;;;32.70;21.23;;;1.20;99.90;;;1.09;56.70;103126.41;5049129;28;20141;-80
2024/01/11 01:19:18;;;;;;;29.10;18.93;;;1.10;99.90;;;1.05;56.74;103124.38;5050374;28;20425;-78
2024/01/11 01:21:47;;;;;;;30.90;20.10;;;1.00;99.90;;;0.99;56.40;103140.50;5050349;28;20127;-82
2024/01/11 01:24:15;;;;;;;30.53;20.07;;;1.00;99.90;;;1.02;56.68;103126.78;5050158;28;20055;-77
2024/01/11 01:26:43;;;;;;;32.30;21.17;;;1.00;99.90;;;0.79;56.82;103088.72;5050213;28;20123;-80
2024/01/11 01:29:12;;;;;;;29.17;20.57;;;1.00;99.90;;;1.02;57.17;103132.91;5050571;28;20045;-77
2024/01/11 01:31:41;;;;;;;28.20;19.73;;;0.90;99.90;;;1.01;57.18;103136.31;5050231;28;20044;-78
2024/01/11 01:34:09;;;;;;;29.60;19.30;;;1.00;99.90;;;1.06;57.09;103132.34;5050012;28;20045;-79
2024/01/11 01:36:40;;;;;;;28.10;19.17;;;1.00;99.90;;;1.07;56.92;103143.63;5050034;28;20198;-79
2024/01/11 01:39:08;;;;;;;35.97;21.25;;;1.00;99.90;;;1.00;57.39;103141.41;5050332;28;20041;-80
2024/01/11 01:41:36;;;;;;;30.87;19.00;;;0.90;99.90;;;1.01;57.33;103151.06;5050112;28;20132;-79
2024/01/11 01:44:05;;;;;;;30.93;20.20;;;1.00;99.90;;;0.99;57.75;103145.72;5051239;28;20063;-79
2024/01/11 01:46:35;;;;;;;30.63;20.17;;;0.90;99.90;;;0.96;57.53;103147.19;5054091;28;20106;-78
2024/01/11 01:49:04;;;;;;;33.45;19.70;;;0.90;99.90;;;1.02;57.68;103158.06;5054328;28;20041;-79
2024/01/11 01:51:34;;;;;;;29.95;19.33;;;1.00;99.90;;;1.05;57.61;103156.56;5053667;28;20421;-79
2024/01/11 01:54:05;;;;;;;32.50;20.47;;;0.90;99.90;;;0.95;57.49;103138.47;5053652;28;20048;-78
2024/01/11 01:56:33;;;;;;;28.53;19.83;;;1.00;99.90;;;1.09;57.52;103155.06;5050349;28;20120;-78
2024/01/11 01:59:03;;;;;;;31.27;20.80;;;1.00;99.90;;;1.09;57.74;103157.69;5033749;28;20069;-78
2024/01/11 02:01:31;;;;;;;31.67;20.33;;;1.00;99.90;;;0.98;57.47;103148.22;5033465;28;20107;-79
2024/01/11 02:04:00;;;;;;;29.20;19.67;;;0.90;99.90;;;1.04;57.94;103160.00;5033679;28;20268;-79
2024/01/11 02:06:32;;;;;;;32.40;21.07;;;1.00;99.90;;;1.04;57.77;103164.28;5033754;28;20049;-78
2024/01/11 02:09:04;;;;;;;34.80;21.57;;;0.90;99.90;;;1.03;58.04;103165.97;5033460;28;20037;-78
2024/01/11 02:11:32;;;;;;;30.40;20.57;;;0.90;99.90;;;0.85;58.20;103133.44;5033283;28;20037;-79
2024/01/11 02:14:01;;;;;;;30.30;20.80;;;0.90;99.90;;;1.01;57.71;103154.53;5033338;28;20136;-80
2024/01/11 02:16:30;;;;;;;31.53;20.63;;;0.90;99.90;;;0.86;57.88;103143.97;5033813;28;20651;-80
2024/01/11 02:18:58;;;;;;;30.77;19.73;;;0.90;99.90;;;0.85;57.66;103133.44;5032915;28;20486;-78
2024/01/11 02:21:29;;;;;;;30.20;20.10;;;0.90;99.90;;;1.03;58.06;103172.91;5033324;28;20065;-79
2024/01/11 02:24:06;;;;;;;32.83;20.87;;;0.90;99.90;;;1.04;57.96;103170.41;5033145;28;20042;-79
2024/01/11 02:26:35;;;;;;;36.53;20.87;;;0.90;99.90;;;0.99;58.16;103165.69;5033222;28;20046;-77
2024/01/11 02:32:08;;;;;;;32.07;20.20;;;0.90;99.90;;;0.91;58.29;103152.06;4972054;28;20086;-70
2024/01/11 02:34:37;;;;;;;35.30;21.23;;;0.80;99.90;;;0.96;58.31;103160.22;4990161;28;20047;-70
2024/01/11 02:37:06;;;;;;;32.17;20.60;;;0.80;99.90;;;0.89;58.42;103159.78;4990165;28;20079;-70
2024/01/11 02:39:36;;;;;;;31.20;21.13;;;0.80;99.90;;;0.95;58.25;103168.84;4974986;28;20043;-70
2024/01/11 02:42:05;;;;;;;36.15;22.02;;;0.90;99.90;;;0.98;58.18;103166.47;4975397;28;20396;-70
2024/01/11 02:44:33;;;;;;;32.37;21.27;;;0.80;99.90;;;0.93;58.47;103167.03;4974739;28;20125;-70
2024/01/11 02:47:02;;;;;;;30.63;19.93;;;0.90;99.90;;;0.93;58.36;103167.03;4973730;28;20051;-70
2024/01/11 02:49:31;;;;;;;32.47;22.03;;;0.80;99.90;;;0.05;58.08;103005.31;4974670;28;20255;-70
2024/01/11 02:51:59;;;;;;;35.93;22.17;;;0.90;99.90;;;0.93;58.42;103173.06;4973500;28;20054;-70
2024/01/11 02:54:27;;;;;;;36.83;23.53;;;0.80;99.90;;;0.89;58.64;103165.00;4973994;28;20054;-70
2024/01/11 02:56:57;;;;;;;32.17;22.10;;;0.80;99.90;;;0.83;58.17;103161.06;4974493;28;20043;-70
2024/01/11 02:59:25;;;;;;;34.72;20.77;;;0.90;99.90;;;0.89;58.73;103170.22;4974498;28;20051;-70
2024/01/11 03:01:54;;;;;;;34.67;22.43;;;0.80;99.90;;;0.89;58.65;103172.81;4974389;28;20098;-70
2024/01/11 03:04:22;;;;;;;33.90;22.33;;;0.80;99.90;;;0.89;58.41;103179.75;4974368;28;20122;-70
2024/01/11 03:06:51;;;;;;;28.33;19.83;;;0.80;99.90;;;0.89;58.52;103165.00;4974514;28;20078;-70
2024/01/11 03:09:19;;;;;;;38.57;22.53;;;0.80;99.90;;;0.82;58.88;103178.41;4973473;28;20456;-70
2024/01/11 03:11:48;;;;;;;41.93;22.67;;;0.70;99.90;;;0.84;59.02;103170.69;4973197;28;20086;-70
2024/01/11 03:14:18;;;;;;;32.70;21.73;;;0.70;99.90;;;0.79;58.81;103167.75;4974185;28;20078;-70
2024/01/11 03:16:46;;;;;;;33.33;22.02;;;0.70;99.90;;;0.77;59.29;103174.53;4974322;28;20050;-70
2024/01/11 03:19:15;;;;;;;32.47;22.07;;;0.70;99.90;;;0.76;58.92;103167.53;4974420;28;20038;-70
2024/01/11 03:21:45;;;;;;;37.83;22.77;;;0.70;99.90;;;0.66;59.21;103166.75;4974344;28;20055;-70
2024/01/11 03:24:14;;;;;;;34.88;22.85;;;0.60;99.90;;;0.70;59.39;103161.88;4974173;28;20066;-70
2024/01/11 03:26:42;;;;;;;35.43;22.67;;;0.70;99.90;;;0.71;59.15;103161.09;4974281;28;20043;-70
2024/01/11 03:29:11;;;;;;;40.27;21.63;;;0.70;99.90;;;0.73;59.40;103164.72;4973939;28;20050;-70
2024/01/11 03:31:43;;;;;;;34.87;21.47;;;0.70;99.90;;;0.75;58.96;103155.31;4973544;28;20055;-70
2024/01/11 03:34:11;;;;;;;37.97;23.30;;;0.70;99.90;;;0.67;59.12;103153.88;4974036;28;20385;-70
2024/01/11 03:36:40;;;;;;;36.03;22.10;;;0.60;99.90;;;0.70;59.16;103153.16;4974008;28;20129;-70
2024/01/11 03:39:09;;;;;;;38.63;23.57;;;0.70;99.90;;;0.70;59.21;103156.69;4973786;28;20054;-70
2024/01/11 03:41:37;;;;;;;36.13;22.20;;;0.70;99.90;;;0.68;59.58;103160.88;4973674;28;20488;-70
2024/01/11 03:44:07;;;;;;;39.23;23.00;;;0.70;99.90;;;0.69;59.46;103159.19;4973670;28;20054;-70
2024/01/11 03:46:36;;;;;;;36.83;23.40;;;0.70;99.90;;;0.74;59.80;103163.00;4973861;28;20042;-70
2024/01/11 03:49:07;;;;;;;36.93;22.87;;;0.70;99.90;;;0.69;59.58;103162.69;4973848;28;20057;-70
2024/01/11 03:51:37;;;;;;;38.00;23.20;;;0.70;99.90;;;0.64;59.67;103174.47;4973733;28;20153;-70
2024/01/11 03:54:05;;;;;;;35.08;22.80;;;0.60;99.90;;;0.63;59.85;103180.47;4973369;28;20039;-70
2024/01/11 03:56:34;;;;;;;37.43;22.63;;;0.60;99.90;;;0.65;59.47;103175.38;4973268;28;20046;-70
2024/01/11 03:59:02;;;;;;;38.13;24.63;;;0.60;99.90;;;0.50;59.99;103166.47;4973686;28;20050;-70
2024/01/11 04:01:31;;;;;;;39.73;23.90;;;0.50;99.90;;;0.55;60.41;103185.91;4973362;28;20475;-70
2024/01/11 04:03:59;;;;;;;41.50;24.87;;;0.50;99.90;;;0.45;60.49;103162.59;4973214;28;20074;-70
2024/01/11 04:06:29;;;;;;;39.83;25.87;;;0.50;99.90;;;0.55;60.55;103185.91;4973086;28;20130;-70
2024/01/11 04:08:58;;;;;;;41.65;25.08;;;0.50;99.90;;;0.52;60.64;103173.56;4972245;28;20047;-70
2024/01/11 04:11:29;;;;;;;43.00;24.43;;;0.40;99.90;;;0.44;60.34;103153.91;4973351;28;20069;-70
2024/01/11 04:13:57;;;;;;;38.77;24.83;;;0.50;99.90;;;0.57;60.39;103169.63;4973371;28;20050;-70
2024/01/11 04:16:26;;;;;;;41.87;26.03;;;0.50;99.90;;;0.55;60.39;103180.69;4988364;28;20510;-70
2024/01/11 04:18:54;;;;;;;41.90;25.87;;;0.50;99.90;;;0.54;60.47;103178.91;4973000;28;20043;-70
2024/01/11 04:21:24;;;;;;;42.83;26.57;;;0.50;99.90;;;0.54;60.37;103173.69;4972958;28;20047;-70
2024/01/11 04:23:54;;;;;;;39.50;25.20;;;0.50;99.90;;;0.33;60.76;103154.78;4987835;28;20153;-71
2024/01/11 04:26:22;;;;;;;39.15;24.90;;;0.50;99.90;;;0.28;60.83;103160.47;4973344;28;20062;-70
2024/01/11 04:28:52;;;;;;;43.97;26.60;;;0.40;99.90;;;0.51;60.92;103192.59;4972820;28;20055;-70
2024/01/11 04:31:25;;;;;;;39.00;24.13;;;0.40;99.90;;;0.54;60.74;103190.19;4973005;28;20058;-70
2024/01/11 04:33:54;;;;;;;40.60;26.20;;;0.50;99.90;;;0.53;60.45;103190.09;4971697;28;20059;-70
2024/01/11 04:36:22;;;;;;;43.13;25.93;;;0.50;99.90;;;0.54;60.75;103199.72;4972560;28;20043;-70
2024/01/11 04:38:50;;;;;;;41.20;25.47;;;0.40;99.90;;;0.51;60.78;103196.88;4971727;28;20444;-70
2024/01/11 04:41:20;;;;;;;39.57;25.47;;;0.40;99.90;;;0.56;60.41;103203.34;4971529;28;20054;-71
2024/01/11 04:43:49;;;;;;;41.53;26.52;;;0.50;99.90;;;0.36;60.61;103174.94;4972655;28;20046;-71
2024/01/11 04:46:18;;;;;;;43.80;26.80;;;0.50;99.90;;;0.61;60.71;103215.00;4987664;28;20051;-70
2024/01/11 04:48:48;;;;;;;44.57;26.13;;;0.60;99.90;;;0.54;60.98;103200.63;4972501;28;20496;-70
2024/01/11 04:51:19;;;;;;;43.23;28.50;;;0.50;99.90;;;0.52;60.80;103209.13;4971624;28;20496;-70
2024/01/11 04:53:47;;;;;;;;;;;0.40;99.90;;;0.52;60.96;103216.94;4987980;28;20676;-70
2024/01/11 04:56:17;;;;;;;41.73;25.90;;;0.50;99.90;;;0.44;61.28;103229.41;4972516;28;19922;-71
2024/01/11 04:58:48;;;;;;;;;;;0.40;99.90;;;0.49;61.34;103228.03;4971763;28;20141;-70
2024/01/11 05:01:17;;;;;;;41.37;26.40;;;0.40;99.90;;;0.40;61.61;103219.53;4972346;28;19922;-70
2024/01/11 05:03:49;;;;;;;42.15;26.63;;;0.40;99.90;;;0.38;61.83;103222.81;4972613;28;20055;-71
2024/01/11 05:06:18;;;;;;;42.60;26.87;;;0.20;99.90;;;0.45;61.75;103227.66;4971350;28;20047;-70
2024/01/11 05:08:48;;;;;;;44.00;27.07;;;0.30;99.90;;;0.39;61.90;103224.63;4971227;28;20133;-71
2024/01/11 05:11:18;;;;;;;44.10;28.40;;;0.20;99.90;;;0.41;62.30;103221.34;4972092;28;20129;-70
2024/01/11 05:13:49;;;;;;;46.92;29.23;;;0.20;99.90;;;0.40;62.41;103237.75;4972180;28;20043;-70
2024/01/11 05:16:20;;;;;;;45.40;28.00;;;0.20;99.90;;;0.43;62.67;103237.06;4972574;28;20051;-71
2024/01/11 05:18:49;;;;;;;44.30;28.33;;;0.30;99.90;;;0.48;63.17;103252.25;4972227;28;20448;-71
2024/01/11 05:21:18;;;;;;;45.47;28.53;;;0.30;99.90;;;0.48;63.59;103253.94;4971947;28;20070;-70
2024/01/11 05:23:47;;;;;;;46.53;27.33;;;0.40;99.90;;;0.51;63.43;103247.25;4986923;28;20047;-70
2024/01/11 05:26:17;;;;;;;45.33;30.00;;;0.40;99.90;;;0.54;63.80;103242.28;4971892;28;20043;-71
2024/01/11 05:28:47;;;;;;;46.88;28.50;;;0.40;99.90;;;-0.42;63.73;103074.63;4971990;28;20057;-71
2024/01/11 05:31:16;;;;;;;45.55;29.15;;;0.40;99.90;;;0.25;63.77;103186.28;4972116;28;20063;-71
2024/01/11 05:33:46;;;;;;;43.13;27.60;;;0.40;99.90;;;0.56;63.90;103227.66;4972220;28;20046;-70
2024/01/11 05:36:16;;;;;;;42.33;28.23;;;0.50;99.90;;;0.58;64.08;103227.81;4972209;28;20055;-71
2024/01/11 05:38:46;;;;;;;46.80;29.30;;;0.50;99.90;;;0.54;64.26;103221.44;4971835;28;20431;-71
2024/01/11 05:41:15;;;;;;;46.80;28.55;;;0.40;99.90;;;0.45;64.17;103220.78;4971841;28;20042;-71
2024/01/11 05:43:44;;;;;;;47.50;29.40;;;0.40;99.90;;;0.49;64.35;103246.25;4971898;28;20205;-71
2024/01/11 05:46:14;;;;;;;48.27;28.70;;;0.30;99.90;;;0.49;64.52;103233.22;4971859;28;20054;-71
2024/01/11 05:48:43;;;;;;;45.47;28.85;;;0.30;99.90;;;0.44;64.83;103232.00;4972046;28;20038;-71
2024/01/11 05:51:12;;;;;;;47.00;29.97;;;0.30;99.90;;;0.47;65.06;103241.69;4971736;28;20074;-70
2024/01/11 05:53:40;;;;;;;47.43;30.00;;;0.30;99.90;;;0.37;65.09;103221.91;4971780;28;20043;-71
2024/01/11 05:56:09;;;;;;;47.20;29.40;;;0.20;99.90;;;0.42;65.14;103241.38;4970393;28;20085;-71
2024/01/11 05:58:38;;;;;;;48.13;31.05;;;0.20;99.90;;;0.34;65.69;103232.09;4970709;28;20512;-70
2024/01/11 06:01:07;;;;;;;48.70;30.43;;;0.20;99.90;;;0.42;65.82;103246.59;4971621;28;20035;-71
2024/01/11 06:03:38;;;;;;;51.23;30.40;;;0.20;99.90;;;0.44;66.03;103260.63;4970664;28;20051;-71
2024/01/11 06:06:07;;;;;;;48.80;30.77;;;0.30;99.90;;;0.11;66.13;103194.75;4971858;28;20041;-71
2024/01/11 06:08:36;;;;;;;53.13;31.05;;;0.30;99.90;;;0.38;66.71;103244.56;4971948;28;20070;-71
2024/01/11 06:11:07;;;;;;;50.53;32.00;;;0.20;99.90;;;0.38;66.76;103238.44;4970704;28;20059;-71
2024/01/11 06:13:36;;;;;;;46.50;30.43;;;0.20;99.90;;;0.33;66.49;103222.47;4971514;28;20047;-71
2024/01/11 06:16:05;;;;;;;51.60;31.57;;;0.20;99.90;;;0.31;66.15;103210.16;4972092;28;20133;-71
2024/01/11 06:18:37;;;;;;;48.47;30.67;;;0.30;99.90;;;0.45;66.67;103239.00;4971845;28;20555;-71
2024/01/11 06:21:06;;;;;;;52.93;30.67;;;0.30;99.90;;;0.43;66.56;103245.78;4971472;28;20065;-71
2024/01/11 06:23:34;;;;;;;49.10;31.13;;;0.30;99.90;;;0.41;66.69;103249.06;4971356;28;20440;-71
2024/01/11 06:26:03;;;;;;;48.27;30.43;;;0.20;99.90;;;0.29;66.75;103254.25;4971627;28;20459;-71
2024/01/11 06:28:31;;;;;;;50.03;30.97;;;0.10;99.90;;;0.28;66.67;103257.66;4971648;28;20055;-71
2024/01/11 06:31:04;;;;;;;48.10;30.63;;;0.10;99.90;;;0.20;66.54;103248.38;4973899;28;20130;-71
2024/01/11 06:33:36;;;;;;;47.13;31.10;;;0.00;99.90;;;0.21;66.53;103238.88;4974792;28;20039;-71
2024/01/11 06:36:08;;;;;;;50.53;30.13;;;0.10;99.90;;;0.19;65.88;103251.78;4974826;28;20070;-70
2024/01/11 06:38:36;;;;;;;52.27;31.37;;;0.10;99.90;;;0.15;66.35;103247.13;4989867;28;20058;-71
2024/01/11 06:41:05;;;;;;;57.87;34.33;;;0.10;99.90;;;-0.08;66.95;103226.28;4973383;28;20054;-71
2024/01/11 06:43:34;;;;;;;52.87;32.57;;;0.00;99.90;;;-0.01;67.36;103277.97;4973631;28;20047;-72
2024/01/11 06:46:05;;;;;;;45.40;29.67;;;-0.10;99.90;;;-0.74;67.40;103143.13;4972217;28;20054;-70
2024/01/11 06:48:33;;;;;;;54.27;33.33;;;-0.20;99.90;;;-0.02;67.95;103278.78;4973312;28;20462;-71
2024/01/11 06:51:02;;;;;;;61.37;35.47;;;-0.20;99.90;;;-0.14;67.94;103262.22;4973594;28;20125;-70
2024/01/11 06:53:32;;;;;;;56.63;33.93;;;-0.20;99.90;;;0.06;68.10;103292.38;4973163;28;20063;-71
2024/01/11 06:56:01;;;;;;;51.33;32.47;;;-0.10;99.90;;;0.08;68.22;103291.66;4973196;28;20530;-71
2024/01/11 06:58:29;;;;;;;64.57;36.30;;;-0.10;99.90;;;0.12;68.41;103293.72;4973343;28;20050;-71
2024/01/11 07:00:58;;;;;;;61.13;35.63;;;0.00;99.90;;;-0.83;68.82;103126.84;4973081;28;20043;-71
2024/01/11 07:03:26;;;;;;;60.57;36.97;;;0.00;99.90;;;0.16;69.09;103303.56;4972974;28;20495;-71
2024/01/11 07:05:55;;;;;;;61.23;37.07;;;0.00;99.90;;;0.03;69.55;103312.91;4973304;28;20051;-72
2024/01/11 07:08:23;;;;;;;64.90;38.97;;;0.10;99.90;;;0.16;70.09;103313.97;4973016;28;20066;-70
2024/01/11 07:10:53;;;;;;;59.20;37.50;;;0.10;99.90;;;0.21;70.48;103306.53;4973295;28;20129;-70
2024/01/11 07:13:21;;;;;;;63.53;38.22;;;0.20;99.90;;;0.23;70.44;103316.28;4972715;28;20082;-70
2024/01/11 07:15:51;;;;;;;67.80;39.93;;;0.20;99.90;;;0.29;70.45;103321.03;4972608;28;20055;-70
2024/01/11 07:18:20;;;;;;;67.78;39.63;;;0.20;99.90;;;0.28;71.26;103320.13;4973060;28;20408;-67
2024/01/11 07:20:48;;;;;;;66.13;39.27;;;0.20;99.90;;;0.33;71.40;103313.56;4988224;28;20047;-69
2024/01/11 07:23:17;;;;;;;72.93;40.23;;;0.20;99.90;;;0.30;71.63;103315.94;4971933;28;20055;-66
2024/01/11 07:25:47;;;;;;;65.33;41.13;;;0.30;99.90;;;0.29;71.96;103311.50;4973163;28;20089;-65
2024/01/11 07:28:25;;;;;;;64.03;39.15;;;0.30;99.90;;;0.30;72.72;103317.63;4972694;28;20096;-67
2024/01/11 07:30:58;;;;;;;70.80;40.60;;;0.20;99.90;;;0.31;72.43;103299.53;4972388;28;20082;-67
2024/01/11 07:33:29;;;;;;;70.50;41.57;;;0.30;99.90;;;0.36;72.54;103299.88;4987749;28;20051;-71
2024/01/11 07:35:59;;;;;;;68.63;41.72;;;0.30;99.90;;;0.34;72.86;103298.84;4971412;28;20050;-72
2024/01/11 07:38:28;;;;;;;71.80;42.65;;;0.20;99.90;;;0.37;72.44;103302.59;4971507;28;20134;-71
2024/01/11 07:40:58;;;;;;;69.17;41.40;;;0.30;99.90;;;0.41;72.46;103302.03;4971176;28;20062;-72
2024/01/11 07:43:29;;;;;;;66.20;41.10;;;0.30;99.90;;;0.37;72.61;103297.38;4972748;28;20117;-71
2024/01/11 07:46:07;;;;;;;70.57;42.57;;;0.30;99.90;;;0.38;72.87;103312.22;4972537;28;20042;-71
2024/01/11 07:48:36;;;;;;;65.00;40.40;;;0.30;99.90;;;0.24;72.76;103276.44;4972367;28;20093;-70
2024/01/11 07:51:05;;;;;;;69.00;39.10;;;0.30;99.90;;;0.37;72.49;103297.38;4972228;28;20042;-71
2024/01/11 07:53:33;;;;;;;69.60;41.27;;;0.30;99.90;;;0.39;72.66;103298.41;4970838;28;20710;-68
2024/01/11 07:56:01;;;;;;;69.40;41.60;;;0.20;99.90;;;0.41;72.93;103290.69;4971134;28;20061;-68
2024/01/11 07:58:31;;;;;;;71.53;42.03;;;0.20;99.90;;;0.28;73.42;103299.31;4987056;28;20126;-67
2024/01/11 08:01:00;;;;;;;66.80;41.55;;;0.10;99.90;;;0.29;74.31;103297.63;4971091;28;20059;-65
2024/01/11 08:03:28;;;;;;;67.60;42.37;;;0.20;99.90;;;0.47;74.03;103293.78;4971929;28;20046;-71
2024/01/11 08:05:57;;;;;;;66.37;41.13;;;0.30;99.90;;;0.55;73.78;103296.16;4987114;28;20106;-70
2024/01/11 08:08:26;;;;;;;67.87;41.20;;;0.40;99.90;;;0.84;73.89;103293.09;4971834;28;20054;-73
2024/01/11 08:10:54;;;;;;;69.40;42.73;;;0.60;99.90;;;0.85;73.40;103261.94;4972001;28;20482;-72
2024/01/11 08:13:23;;;;;;;68.53;42.27;;;0.80;99.90;;;1.03;73.15;103304.06;4971841;28;20038;-71
2024/01/11 08:15:53;;;;;;;67.07;41.33;;;1.00;99.90;;;1.43;72.51;103307.88;4986817;28;20400;-68
2024/01/11 08:18:21;;;;;;;64.90;40.35;;;1.20;99.90;;;1.67;71.89;103304.38;4971718;28;20066;-70
2024/01/11 08:20:50;;;;;;;66.47;41.67;;;1.40;99.90;;;1.96;71.15;103317.75;4970604;28;20086;-69
2024/01/11 08:23:24;;;;;;;70.77;42.90;;;1.70;99.90;;;2.18;70.39;103317.53;4971655;28;20039;-69
2024/01/11 08:25:55;;;;;;;66.00;41.53;;;1.90;99.90;;;2.52;69.82;103326.84;4986965;28;20046;-70
2024/01/11 08:28:23;;;;;;;;;;;2.20;99.90;;;2.69;69.42;103318.44;4972310;28;20425;-69
2024/01/11 08:30:53;;;;;;;64.97;39.67;;;2.40;99.90;;;2.99;68.91;103322.16;4971092;28;19926;-69
2024/01/11 08:33:22;;;;;;;67.20;39.22;;;2.70;99.90;;;3.30;67.84;103324.25;4971436;28;20046;-69
2024/01/11 08:35:51;;;;;;;63.43;40.53;;;3.00;99.90;;;3.68;66.69;103326.66;4971789;28;20046;-69
2024/01/11 08:38:19;;;;;;;61.33;39.13;;;3.40;99.90;;;4.01;65.11;103331.38;4971661;28;20054;-69
2024/01/11 08:40:48;;;;;;;59.50;38.77;;;3.70;99.90;;;4.12;64.55;103283.16;4972492;28;20053;-69
2024/01/11 08:43:17;;;;;;;63.40;40.43;;;4.20;99.90;;;4.68;63.12;103323.25;4972458;28;20042;-69
2024/01/11 08:45:46;;;;;;;61.83;39.33;;;4.50;99.90;;;4.97;62.09;103331.09;4972796;28;20049;-68
2024/01/11 08:48:17;;;;;;;65.40;40.25;;;4.80;99.90;;;5.07;61.56;103335.13;4972457;28;20489;-68
2024/01/11 08:50:46;;;;;;;58.20;39.07;;;5.00;99.90;;;5.48;60.83;103338.34;4987301;28;20138;-68
2024/01/11 08:53:15;;;;;;;66.25;41.00;;;5.30;99.90;;;5.40;59.81;103342.28;4971764;28;20400;-69
2024/01/11 08:55:44;;;;;;;67.18;39.83;;;5.20;99.90;;;5.68;59.64;103344.72;4972277;28;20045;-66
2024/01/11 08:58:15;;;;;;;58.08;39.63;;;5.50;99.90;;;5.75;58.92;103339.88;4972516;28;20490;-66
2024/01/11 09:00:43;;;;;;;63.83;40.35;;;5.50;99.90;;;5.76;58.57;103339.06;4972496;28;20042;-66
2024/01/11 09:03:13;;;;;;;63.20;39.55;;;5.50;99.90;;;6.08;57.95;103341.72;4972204;28;20118;-65
2024/01/11 09:05:44;;;;;;;63.30;40.75;;;5.80;99.90;;;6.42;57.38;103356.66;4972525;28;20043;-64
2024/01/11 09:08:12;;;;;;;58.65;40.22;;;6.20;99.90;;;6.69;56.54;103361.63;4971154;28;20469;-64
2024/01/11 09:10:41;;;;;;;61.58;40.17;;;6.50;99.90;;;6.89;55.80;103354.75;4971065;28;20042;-66
2024/01/11 09:13:10;;;;;;;57.95;39.30;;;6.70;99.90;;;6.96;55.25;103360.38;4987190;28;20523;-66
2024/01/11 09:15:43;;;;;;;60.38;39.97;;;6.90;99.90;;;6.92;54.90;103373.31;4971071;28;20043;-66
2024/01/11 09:18:11;;;;;;;58.40;39.03;;;6.80;99.90;;;6.93;55.27;103370.75;4971956;28;20129;-66
2024/01/11 09:20:40;;;;;;;60.05;39.80;;;6.70;99.90;;;7.07;54.66;103372.34;4972321;28;20630;-65
2024/01/11 09:23:10;;;;;;;58.90;40.00;;;6.80;99.90;;;7.02;54.51;103376.50;4971976;28;20097;-65
2024/01/11 09:25:38;;;;;;;62.38;41.35;;;6.80;99.90;;;7.20;53.69;103387.91;4987153;28;20047;-66
2024/01/11 09:28:07;;;;;;;59.53;39.45;;;6.90;99.90;;;7.35;53.12;103382.50;4972231;28;20157;-65
2024/01/11 09:30:36;;;;;;;59.22;39.25;;;7.20;99.90;;;7.44;52.98;103353.06;4971893;28;20046;-65
2024/01/11 09:33:06;;;;;;;59.25;39.30;;;7.40;99.90;;;7.66;52.27;103398.97;4971920;28;20043;-65
2024/01/11 09:35:35;;;;;;;60.00;39.33;;;7.50;99.90;;;7.51;52.30;103382.41;4972106;28;20532;-66
2024/01/11 09:38:03;;;;;;;56.88;38.17;;;7.60;99.90;;;7.66;52.01;103420.03;4971819;28;20043;-65
2024/01/11 09:40:33;;;;;;;57.65;38.25;;;7.50;99.90;;;7.06;51.73;103293.31;4986990;28;20259;-65
2024/01/11 09:43:05;;;;;;;53.90;37.25;;;7.60;99.90;;;7.75;51.89;103420.47;4972370;28;20051;-65
2024/01/11 09:45:35;;;;;;;56.65;36.88;;;7.60;99.90;;;7.66;51.79;103427.94;4986998;28;20050;-64
2024/01/11 09:48:06;;;;;;;52.63;36.47;;;7.60;99.90;;;7.75;52.25;103422.19;4971777;28;20546;-66
2024/01/11 09:50:36;;;;;;;52.63;36.55;;;7.60;99.90;;;7.81;52.88;103433.03;4971936;28;20068;-65
2024/01/11 09:53:08;;;;;;;55.10;35.08;;;7.60;99.90;;;7.10;53.09;103295.28;4971646;28;20054;-66
2024/01/11 09:55:38;;;;;;;50.58;33.65;;;7.70;99.90;;;7.83;52.78;103448.09;4971598;28;20049;-64
2024/01/11 09:58:08;;;;;;;50.58;35.17;;;7.80;99.90;;;7.80;52.65;103442.66;4971942;28;20051;-65
2024/01/11 10:00:37;;;;;;;53.10;35.75;;;7.70;99.90;;;7.68;53.51;103444.72;4971770;28;20043;-66
2024/01/11 10:03:06;;;;;;;49.75;33.13;;;7.60;99.90;;;7.77;53.76;103445.16;4972445;28;20043;-65
2024/01/11 10:05:36;;;;;;;53.38;34.42;;;7.70;99.90;;;7.77;54.24;103449.53;4974771;28;20071;-64
2024/01/11 10:08:05;;;;;;;51.28;34.42;;;7.70;99.90;;;7.73;54.52;103451.13;4990551;28;20050;-66
2024/01/11 10:10:34;;;;;;;51.60;34.33;;;7.60;99.90;;;7.70;54.31;103456.25;4974300;28;20108;-66
2024/01/11 10:13:06;;;;;;;51.92;35.65;;;7.60;99.90;;;7.43;54.16;103444.34;4975546;28;20053;-66
2024/01/11 10:15:34;;;;;;;51.75;34.78;;;7.40;99.90;;;7.20;54.68;103456.34;4975206;28;20042;-65
2024/01/11 10:18:03;;;;;;;53.40;36.47;;;7.10;99.90;;;6.90;55.18;103464.41;4975260;28;20047;-65
2024/01/11 10:20:32;;;;;;;55.60;36.65;;;6.80;99.90;;;6.91;55.43;103458.34;4975298;28;20050;-66
2024/01/11 10:23:01;;;;;;;56.03;37.17;;;6.80;99.90;;;6.71;55.68;103443.22;4990325;28;20038;-66
2024/01/11 10:25:30;;;;;;;63.55;36.47;;;6.60;99.90;;;6.51;55.50;103436.00;4975310;28;20059;-66